Time,TemperatureF,DewpointF,PressureIn,WindDirection,WindDirectionDegrees,WindSpeedMPH,WindSpeedGustMPH,Humidity,HourlyPrecipIn,Conditions,Clouds,dailyrainin,SoftwareType,DateUTC
2013-01-06 00:02:00,70.0,62.1,30.06,East,101,2.0,5.0,76,0.00,,,0.00,meteohub,2013-01-06 10:02:00,
2013-01-06 00:07:00,69.8,61.9,30.06,East,82,3.0,5.0,76,0.00,,,0.00,meteohub,2013-01-06 10:07:00,
2013-01-06 00:12:00,69.6,61.7,30.06,ESE,123,5.0,7.0,76,0.00,,,0.00,meteohub,2013-01-06 10:12:00,
2013-01-06 00:17:00,69.8,61.9,30.05,SE,125,3.0,9.0,76,0.00,,,0.00,meteohub,2013-01-06 10:17:00,
2013-01-06 00:22:00,70.2,62.2,30.05,SE,140,2.0,9.0,76,0.00,,,0.00,meteohub,2013-01-06 10:22:00,
2013-01-06 00:27:00,70.3,62.1,30.06,East,86,2.0,9.0,75,0.00,,,0.00,meteohub,2013-01-06 10:27:00,
2013-01-06 00:32:00,70.3,62.1,30.06,East,101,1.0,7.0,75,0.00,,,0.00,meteohub,2013-01-06 10:32:00,
2013-01-06 00:37:00,70.0,61.3,30.06,ESE,121,2.0,4.0,74,0.00,,,0.00,meteohub,2013-01-06 10:37:00,
2013-01-06 00:42:00,69.6,61.3,30.06,ESE,122,2.0,4.0,75,0.00,,,0.00,meteohub,2013-01-06 10:42:00,
2013-01-06 00:47:00,69.4,61.2,30.06,SE,134,0.0,4.0,75,0.00,,,0.00,meteohub,2013-01-06 10:47:00,
2013-01-06 00:52:00,69.6,61.3,30.06,ESE,110,0.0,4.0,75,0.00,,,0.00,meteohub,2013-01-06 10:52:00,
2013-01-06 00:57:00,69.6,61.3,30.05,ESE,111,1.0,4.0,75,0.00,,,0.00,meteohub,2013-01-06 10:57:00,
2013-01-06 01:02:00,69.4,61.2,30.06,ESE,111,4.0,5.0,75,0.00,,,0.00,meteohub,2013-01-06 11:02:00,
2013-01-06 01:07:00,69.6,61.3,30.06,SSE,162,1.0,5.0,75,0.00,,,0.00,meteohub,2013-01-06 11:07:00,
2013-01-06 01:12:00,69.6,61.0,30.06,ENE,70,3.0,5.0,74,0.00,,,0.00,meteohub,2013-01-06 11:12:00,
2013-01-06 01:17:00,69.3,60.6,30.05,ESE,114,1.0,6.0,74,0.00,,,0.00,meteohub,2013-01-06 11:17:00,
2013-01-06 01:22:00,69.1,60.8,30.05,East,97,3.0,6.0,75,0.00,,,0.00,meteohub,2013-01-06 11:22:00,
2013-01-06 01:27:00,69.3,60.6,30.05,ESE,110,3.0,6.0,74,0.00,,,0.00,meteohub,2013-01-06 11:27:00,
2013-01-06 01:32:00,69.3,60.6,30.05,ENE,78,3.0,5.0,74,0.00,,,0.00,meteohub,2013-01-06 11:32:00,
2013-01-06 01:37:00,69.3,60.6,30.05,East,86,4.0,5.0,74,0.00,,,0.00,meteohub,2013-01-06 11:37:00,
2013-01-06 01:42:00,69.4,60.4,30.06,ESE,114,0.0,6.0,73,0.00,,,0.00,meteohub,2013-01-06 11:42:00,
2013-01-06 01:47:00,69.4,60.4,30.05,NNE,23,0.0,6.0,73,0.00,,,0.00,meteohub,2013-01-06 11:47:00,
2013-01-06 01:52:00,68.9,59.9,30.05,ENE,75,4.0,6.0,73,0.00,,,0.00,meteohub,2013-01-06 11:52:00,
2013-01-06 01:57:00,68.5,59.5,30.05,ESE,116,2.0,4.0,73,0.00,,,0.00,meteohub,2013-01-06 11:57:00,
2013-01-06 02:02:00,68.4,59.4,30.04,ESE,122,2.0,4.0,73,0.00,,,0.00,meteohub,2013-01-06 12:02:00,
2013-01-06 02:07:00,68.4,59.4,30.04,ESE,120,2.0,6.0,73,0.00,,,0.00,meteohub,2013-01-06 12:07:00,
2013-01-06 02:12:00,68.2,59.2,30.04,SSE,155,0.0,6.0,73,0.00,,,0.00,meteohub,2013-01-06 12:12:00,
2013-01-06 02:17:00,67.8,59.2,30.05,ENE,60,1.0,6.0,74,0.00,,,0.00,meteohub,2013-01-06 12:17:00,
2013-01-06 02:22:00,67.5,58.8,30.04,ESE,108,0.0,4.0,74,0.00,,,0.00,meteohub,2013-01-06 12:22:00,
2013-01-06 02:27:00,67.5,59.2,30.04,ESE,103,3.0,3.0,75,0.00,,,0.00,meteohub,2013-01-06 12:27:00,
2013-01-06 02:32:00,67.6,59.0,30.04,ESE,103,2.0,4.0,74,0.00,,,0.00,meteohub,2013-01-06 12:32:00,
2013-01-06 02:37:00,67.5,58.8,30.04,ESE,117,2.0,4.0,74,0.00,,,0.00,meteohub,2013-01-06 12:37:00,
2013-01-06 02:42:00,67.6,59.0,30.05,SE,131,0.0,4.0,74,0.00,,,0.00,meteohub,2013-01-06 12:42:00,
2013-01-06 02:47:00,67.5,58.5,30.04,SSE,156,0.0,4.0,73,0.00,,,0.00,meteohub,2013-01-06 12:47:00,
2013-01-06 02:52:00,67.3,58.6,30.04,ESE,114,4.0,4.0,74,0.00,,,0.00,meteohub,2013-01-06 12:52:00,
2013-01-06 02:57:00,67.1,58.1,30.04,ESE,110,3.0,6.0,73,0.00,,,0.00,meteohub,2013-01-06 12:57:00,
2013-01-06 03:02:00,67.3,58.3,30.04,ESE,119,4.0,6.0,73,0.00,,,0.00,meteohub,2013-01-06 13:02:00,
2013-01-06 03:07:00,67.3,58.3,30.05,ESE,113,4.0,6.0,73,0.00,,,0.00,meteohub,2013-01-06 13:07:00,
2013-01-06 03:12:00,67.5,58.8,30.04,East,101,3.0,6.0,74,0.00,,,0.00,meteohub,2013-01-06 13:12:00,
2013-01-06 03:17:00,67.6,58.3,30.04,ESE,119,5.0,6.0,72,0.00,,,0.00,meteohub,2013-01-06 13:17:00,
2013-01-06 03:22:00,67.6,57.9,30.04,ESE,117,1.0,6.0,71,0.00,,,0.00,meteohub,2013-01-06 13:22:00,
2013-01-06 03:27:00,67.5,57.7,30.04,ESE,115,1.0,6.0,71,0.00,,,0.00,meteohub,2013-01-06 13:27:00,
2013-01-06 03:32:00,66.9,57.6,30.04,SSE,149,3.0,5.0,72,0.00,,,0.00,meteohub,2013-01-06 13:32:00,
2013-01-06 03:37:00,66.9,57.6,30.04,ESE,123,3.0,4.0,72,0.00,,,0.00,meteohub,2013-01-06 13:37:00,
2013-01-06 03:42:00,67.3,57.9,30.04,ESE,120,4.0,5.0,72,0.00,,,0.00,meteohub,2013-01-06 13:42:00,
2013-01-06 03:47:00,67.5,57.7,30.04,East,91,5.0,5.0,71,0.00,,,0.00,meteohub,2013-01-06 13:47:00,
2013-01-06 03:52:00,67.8,58.1,30.04,SE,131,2.0,5.0,71,0.00,,,0.00,meteohub,2013-01-06 13:52:00,
2013-01-06 03:57:00,68.2,58.1,30.04,East,96,4.0,6.0,70,0.00,,,0.00,meteohub,2013-01-06 13:57:00,
2013-01-06 04:02:00,68.2,57.6,30.04,ESE,114,3.0,6.0,69,0.00,,,0.00,meteohub,2013-01-06 14:02:00,
2013-01-06 04:07:00,68.4,57.7,30.04,ESE,115,2.0,6.0,69,0.00,,,0.00,meteohub,2013-01-06 14:07:00,
2013-01-06 04:12:00,68.2,57.2,30.05,ESE,114,3.0,5.0,68,0.00,,,0.00,meteohub,2013-01-06 14:12:00,
2013-01-06 04:17:00,68.4,57.4,30.05,East,96,2.0,5.0,68,0.00,,,0.00,meteohub,2013-01-06 14:17:00,
2013-01-06 04:22:00,68.2,57.2,30.04,ESE,115,0.0,5.0,68,0.00,,,0.00,meteohub,2013-01-06 14:22:00,
2013-01-06 04:27:00,68.2,57.2,30.05,ESE,120,3.0,5.0,68,0.00,,,0.00,meteohub,2013-01-06 14:27:00,
2013-01-06 04:32:00,68.0,57.4,30.05,East,94,1.0,4.0,69,0.00,,,0.00,meteohub,2013-01-06 14:32:00,
2013-01-06 04:37:00,68.2,57.6,30.05,SE,133,1.0,5.0,69,0.00,,,0.00,meteohub,2013-01-06 14:37:00,
2013-01-06 04:42:00,67.8,58.1,30.04,ESE,122,3.0,5.0,71,0.00,,,0.00,meteohub,2013-01-06 14:42:00,
2013-01-06 04:47:00,68.2,58.5,30.05,SE,131,3.0,6.0,71,0.00,,,0.00,meteohub,2013-01-06 14:47:00,
2013-01-06 04:52:00,68.2,58.1,30.05,ESE,109,2.0,7.0,70,0.00,,,0.00,meteohub,2013-01-06 14:52:00,
2013-01-06 04:57:00,68.2,57.6,30.05,ESE,115,3.0,7.0,69,0.00,,,0.00,meteohub,2013-01-06 14:57:00,
2013-01-06 05:02:00,68.5,58.3,30.05,ENE,72,1.0,7.0,70,0.00,,,0.00,meteohub,2013-01-06 15:02:00,
2013-01-06 05:07:00,68.4,58.3,30.05,WNW,302,1.0,6.0,70,0.00,,,0.00,meteohub,2013-01-06 15:07:00,
2013-01-06 05:12:00,67.8,58.1,30.05,East,98,1.0,6.0,71,0.00,,,0.00,meteohub,2013-01-06 15:12:00,
2013-01-06 05:17:00,66.9,57.2,30.06,ESE,113,1.0,3.0,71,0.00,,,0.00,meteohub,2013-01-06 15:17:00,
2013-01-06 05:22:00,66.7,57.4,30.06,NE,48,1.0,3.0,72,0.00,,,0.00,meteohub,2013-01-06 15:22:00,
2013-01-06 05:27:00,66.4,56.7,30.06,ESE,111,5.0,5.0,71,0.00,,,0.00,meteohub,2013-01-06 15:27:00,
2013-01-06 05:32:00,66.6,57.6,30.05,SE,126,1.0,5.0,73,0.00,,,0.00,meteohub,2013-01-06 15:32:00,
2013-01-06 05:37:00,66.9,57.9,30.06,ESE,109,2.0,5.0,73,0.00,,,0.00,meteohub,2013-01-06 15:37:00,
2013-01-06 05:42:00,67.3,58.6,30.06,ESE,107,3.0,5.0,74,0.00,,,0.00,meteohub,2013-01-06 15:42:00,
2013-01-06 05:47:00,67.5,58.5,30.06,SE,145,2.0,4.0,73,0.00,,,0.00,meteohub,2013-01-06 15:47:00,
2013-01-06 05:52:00,67.5,58.8,30.06,East,101,2.0,4.0,74,0.00,,,0.00,meteohub,2013-01-06 15:52:00,
2013-01-06 05:57:00,67.5,59.2,30.06,ESE,108,2.0,4.0,75,0.00,,,0.00,meteohub,2013-01-06 15:57:00,
2013-01-06 06:02:00,67.5,58.8,30.06,ESE,110,4.0,4.0,74,0.00,,,0.00,meteohub,2013-01-06 16:02:00,
2013-01-06 06:07:00,67.5,58.5,30.06,ESE,120,4.0,5.0,73,0.00,,,0.00,meteohub,2013-01-06 16:07:00,
2013-01-06 06:12:00,67.5,58.8,30.06,ESE,121,4.0,5.0,74,0.00,,,0.00,meteohub,2013-01-06 16:12:00,
2013-01-06 06:17:00,67.6,59.0,30.06,SSE,148,2.0,7.0,74,0.00,,,0.00,meteohub,2013-01-06 16:17:00,
2013-01-06 06:22:00,67.8,59.5,30.06,WSW,256,0.0,7.0,75,0.00,,,0.00,meteohub,2013-01-06 16:22:00,
2013-01-06 06:27:00,67.6,59.4,30.06,SE,125,1.0,7.0,75,0.00,,,0.00,meteohub,2013-01-06 16:27:00,
2013-01-06 06:32:00,67.6,60.3,30.06,ESE,118,4.0,5.0,77,0.00,,,0.00,meteohub,2013-01-06 16:32:00,
2013-01-06 06:37:00,67.8,60.3,30.06,ESE,116,2.0,5.0,77,0.00,,,0.00,meteohub,2013-01-06 16:37:00,
2013-01-06 06:42:00,67.8,60.3,30.06,East,101,4.0,5.0,77,0.00,,,0.00,meteohub,2013-01-06 16:42:00,
2013-01-06 06:47:00,67.6,59.7,30.06,SE,124,2.0,5.0,76,0.00,,,0.00,meteohub,2013-01-06 16:47:00,
2013-01-06 06:52:00,67.6,60.3,30.06,ESE,117,5.0,5.0,77,0.00,,,0.00,meteohub,2013-01-06 16:52:00,
2013-01-06 06:57:00,67.8,60.3,30.06,SE,124,2.0,5.0,77,0.00,,,0.00,meteohub,2013-01-06 16:57:00,
2013-01-06 07:02:00,67.8,60.3,30.06,SSE,153,0.0,5.0,77,0.00,,,0.00,meteohub,2013-01-06 17:02:00,
2013-01-06 07:07:00,67.8,60.3,30.06,ESE,103,1.0,5.0,77,0.00,,,0.00,meteohub,2013-01-06 17:07:00,
2013-01-06 07:12:00,67.6,60.3,30.06,ENE,77,3.0,4.0,77,0.00,,,0.00,meteohub,2013-01-06 17:12:00,
2013-01-06 07:17:00,67.3,59.9,30.07,ESE,103,4.0,5.0,77,0.00,,,0.00,meteohub,2013-01-06 17:17:00,
2013-01-06 07:22:00,67.3,59.9,30.07,ESE,115,5.0,5.0,77,0.00,,,0.00,meteohub,2013-01-06 17:22:00,
2013-01-06 07:27:00,67.5,59.5,30.07,ESE,120,4.0,6.0,76,0.00,,,0.00,meteohub,2013-01-06 17:27:00,
2013-01-06 07:32:00,67.8,59.5,30.07,SW,214,0.0,7.0,75,0.00,,,0.00,meteohub,2013-01-06 17:32:00,
2013-01-06 07:37:00,67.6,59.4,30.07,SSE,162,2.0,7.0,75,0.00,,,0.00,meteohub,2013-01-06 17:37:00,
2013-01-06 07:42:00,67.6,59.7,30.07,South,170,0.0,5.0,76,0.00,,,0.00,meteohub,2013-01-06 17:42:00,
2013-01-06 07:47:00,67.6,59.7,30.08,ESE,113,0.0,3.0,76,0.00,,,0.00,meteohub,2013-01-06 17:47:00,
2013-01-06 07:52:00,68.2,60.3,30.08,SE,139,2.0,3.0,76,0.00,,,0.00,meteohub,2013-01-06 17:52:00,
2013-01-06 07:57:00,68.7,61.2,30.09,East,96,1.0,2.0,77,0.00,,,0.00,meteohub,2013-01-06 17:57:00,
2013-01-06 08:02:00,69.3,61.3,30.09,ESE,111,1.0,2.0,76,0.00,,,0.00,meteohub,2013-01-06 18:02:00,
2013-01-06 08:07:00,69.6,61.3,30.09,East,83,1.0,3.0,75,0.00,,,0.00,meteohub,2013-01-06 18:07:00,
2013-01-06 08:12:00,70.3,61.7,30.09,ESE,105,2.0,3.0,74,0.00,,,0.00,meteohub,2013-01-06 18:12:00,
2013-01-06 08:17:00,71.1,61.9,30.09,NE,53,0.0,4.0,73,0.00,,,0.00,meteohub,2013-01-06 18:17:00,
2013-01-06 08:22:00,71.2,61.7,30.09,ESE,104,4.0,4.0,72,0.00,,,0.00,meteohub,2013-01-06 18:22:00,
2013-01-06 08:27:00,72.0,62.4,30.09,East,98,0.0,4.0,72,0.00,,,0.00,meteohub,2013-01-06 18:27:00,
2013-01-06 08:32:00,72.3,62.4,30.09,NNW,342,0.0,4.0,71,0.00,,,0.00,meteohub,2013-01-06 18:32:00,
2013-01-06 08:37:00,72.9,63.0,30.09,ENE,71,0.0,6.0,71,0.00,,,0.00,meteohub,2013-01-06 18:37:00,
2013-01-06 08:42:00,73.4,63.0,30.09,NE,55,1.0,6.0,70,0.00,,,0.00,meteohub,2013-01-06 18:42:00,
2013-01-06 08:47:00,73.2,63.3,30.10,NE,46,2.0,5.0,71,0.00,,,0.00,meteohub,2013-01-06 18:47:00,
2013-01-06 08:52:00,73.2,62.8,30.10,NE,42,4.0,5.0,70,0.00,,,0.00,meteohub,2013-01-06 18:52:00,
2013-01-06 08:57:00,72.9,63.0,30.10,NW,315,7.0,8.0,71,0.00,,,0.00,meteohub,2013-01-06 18:57:00,
2013-01-06 09:02:00,72.9,63.0,30.10,NNW,328,3.0,9.0,71,0.00,,,0.00,meteohub,2013-01-06 19:02:00,
2013-01-06 09:07:00,73.0,63.1,30.10,NNE,21,1.0,9.0,71,0.00,,,0.00,meteohub,2013-01-06 19:07:00,
2013-01-06 09:12:00,73.0,63.5,30.10,ENE,65,0.0,9.0,72,0.00,,,0.00,meteohub,2013-01-06 19:12:00,
2013-01-06 09:17:00,73.2,63.7,30.10,NE,42,2.0,7.0,72,0.00,,,0.00,meteohub,2013-01-06 19:17:00,
2013-01-06 09:22:00,73.9,63.5,30.10,NNE,32,0.0,7.0,70,0.00,,,0.00,meteohub,2013-01-06 19:22:00,
2013-01-06 09:27:00,73.9,63.1,30.10,NW,326,3.0,6.0,69,0.00,,,0.00,meteohub,2013-01-06 19:27:00,
2013-01-06 09:32:00,73.8,63.3,30.10,East,83,1.0,6.0,70,0.00,,,0.00,meteohub,2013-01-06 19:32:00,
2013-01-06 09:37:00,74.1,63.7,30.10,NW,314,3.0,6.0,70,0.00,,,0.00,meteohub,2013-01-06 19:37:00,
2013-01-06 09:42:00,74.3,63.9,30.10,NNE,20,4.0,9.0,70,0.00,,,0.00,meteohub,2013-01-06 19:42:00,
2013-01-06 09:47:00,74.7,63.9,30.10,ENE,60,3.0,9.0,69,0.00,,,0.00,meteohub,2013-01-06 19:47:00,
2013-01-06 09:52:00,75.0,64.2,30.09,NW,304,2.0,9.0,69,0.00,,,0.00,meteohub,2013-01-06 19:52:00,
2013-01-06 09:57:00,75.0,63.7,30.10,NW,325,3.0,7.0,68,0.00,,,0.00,meteohub,2013-01-06 19:57:00,
2013-01-06 10:03:00,75.4,64.0,30.10,ESE,111,0.0,7.0,68,0.00,,,0.00,meteohub,2013-01-06 20:03:00,
2013-01-06 10:08:00,75.6,63.9,30.09,NW,323,1.0,4.0,67,0.00,,,0.00,meteohub,2013-01-06 20:08:00,
2013-01-06 10:11:00,75.7,64.4,30.09,WNW,291,3.0,6.0,68,0.00,,,0.00,meteohub,2013-01-06 20:11:00,
2013-01-06 10:13:00,75.7,64.0,30.09,WNW,302,0.0,6.0,67,0.00,,,0.00,meteohub,2013-01-06 20:13:00,
2013-01-06 10:18:00,75.6,63.9,30.09,NW,311,1.0,6.0,67,0.00,,,0.00,meteohub,2013-01-06 20:18:00,
2013-01-06 10:24:00,75.4,64.0,30.09,WNW,300,3.0,6.0,68,0.00,,,0.00,meteohub,2013-01-06 20:24:00,
2013-01-06 10:29:00,75.4,63.7,30.09,WNW,296,5.0,8.0,67,0.00,,,0.00,meteohub,2013-01-06 20:29:00,
2013-01-06 10:34:00,75.6,63.9,30.08,West,263,5.0,9.0,67,0.00,,,0.00,meteohub,2013-01-06 20:34:00,
2013-01-06 10:39:00,75.7,64.0,30.08,WNW,295,5.0,9.0,67,0.00,,,0.00,meteohub,2013-01-06 20:39:00,
2013-01-06 10:44:00,76.3,64.0,30.08,SW,233,4.0,9.0,66,0.00,,,0.00,meteohub,2013-01-06 20:44:00,
2013-01-06 10:51:00,76.3,64.6,30.07,SSW,212,3.0,7.0,67,0.00,,,0.00,meteohub,2013-01-06 20:51:00,
2013-01-06 10:56:00,76.5,64.8,30.07,NW,312,4.0,9.0,67,0.00,,,0.00,meteohub,2013-01-06 20:56:00,
2013-01-06 11:01:00,76.6,64.9,30.07,West,267,4.0,9.0,67,0.00,,,0.00,meteohub,2013-01-06 21:01:00,
2013-01-06 11:05:00,76.8,64.6,30.06,WSW,243,1.0,9.0,66,0.00,,,0.00,meteohub,2013-01-06 21:05:00,
2013-01-06 11:10:00,77.0,64.8,30.07,WNW,295,8.0,10.0,66,0.00,,,0.00,meteohub,2013-01-06 21:10:00,
2013-01-06 11:15:00,76.8,64.6,30.06,NW,319,6.0,13.0,66,0.00,,,0.00,meteohub,2013-01-06 21:15:00,
2013-01-06 11:20:00,76.8,64.6,30.06,NW,316,5.0,13.0,66,0.00,,,0.00,meteohub,2013-01-06 21:20:00,
2013-01-06 11:25:00,76.8,64.6,30.06,WNW,298,3.0,13.0,66,0.00,,,0.00,meteohub,2013-01-06 21:25:00,
2013-01-06 11:30:00,77.2,64.6,30.05,NW,307,8.0,9.0,65,0.00,,,0.00,meteohub,2013-01-06 21:30:00,
2013-01-06 11:35:00,77.4,64.2,30.05,WNW,297,3.0,9.0,64,0.00,,,0.00,meteohub,2013-01-06 21:35:00,
2013-01-06 11:40:00,77.5,64.4,30.05,West,274,0.0,9.0,64,0.00,,,0.00,meteohub,2013-01-06 21:40:00,
2013-01-06 11:45:00,78.1,64.9,30.04,West,276,6.0,9.0,64,0.00,,,0.00,meteohub,2013-01-06 21:45:00,
2013-01-06 11:50:00,78.3,63.7,30.04,West,275,6.0,7.0,61,0.00,,,0.00,meteohub,2013-01-06 21:50:00,
2013-01-06 11:56:00,78.4,64.4,30.04,WNW,285,6.0,11.0,62,0.00,,,0.00,meteohub,2013-01-06 21:56:00,
2013-01-06 12:01:00,78.4,63.0,30.03,WNW,284,4.0,11.0,59,0.00,,,0.00,meteohub,2013-01-06 22:01:00,
2013-01-06 12:06:00,78.4,63.9,30.03,NW,304,6.0,9.0,61,0.00,,,0.00,meteohub,2013-01-06 22:06:00,
2013-01-06 12:11:00,78.4,64.8,30.02,NW,316,3.0,9.0,63,0.00,,,0.00,meteohub,2013-01-06 22:11:00,
2013-01-06 12:16:00,78.6,65.5,30.02,WNW,299,1.0,8.0,64,0.00,,,0.00,meteohub,2013-01-06 22:16:00,
2013-01-06 12:21:00,78.6,64.9,30.02,WNW,300,6.0,8.0,63,0.00,,,0.00,meteohub,2013-01-06 22:21:00,
2013-01-06 12:26:00,79.2,65.8,30.01,WNW,282,5.0,14.0,64,0.00,,,0.00,meteohub,2013-01-06 22:26:00,
2013-01-06 12:31:00,79.3,66.0,30.01,NW,308,7.0,14.0,64,0.00,,,0.00,meteohub,2013-01-06 22:31:00,
2013-01-06 12:36:00,79.3,66.9,30.01,WNW,288,8.0,14.0,66,0.00,,,0.00,meteohub,2013-01-06 22:36:00,
2013-01-06 12:41:00,79.3,66.0,30.00,NW,323,6.0,17.0,64,0.00,,,0.00,meteohub,2013-01-06 22:41:00,
2013-01-06 12:46:00,79.3,66.0,30.00,WNW,293,11.0,19.0,64,0.00,,,0.00,meteohub,2013-01-06 22:46:00,
2013-01-06 12:51:00,79.3,65.7,30.00,NW,311,10.0,19.0,63,0.00,,,0.00,meteohub,2013-01-06 22:51:00,
2013-01-06 12:57:00,79.0,65.8,30.00,WNW,302,11.0,19.0,64,0.00,,,0.00,meteohub,2013-01-06 22:57:00,
2013-01-06 13:02:00,78.6,65.8,30.00,WNW,285,7.0,18.0,65,0.00,,,0.00,meteohub,2013-01-06 23:02:00,
2013-01-06 13:07:00,78.6,65.5,29.99,WNW,292,10.0,18.0,64,0.00,,,0.00,meteohub,2013-01-06 23:07:00,
2013-01-06 13:12:00,78.6,65.5,29.99,WNW,295,10.0,17.0,64,0.00,,,0.00,meteohub,2013-01-06 23:12:00,
2013-01-06 13:17:00,78.4,66.2,29.99,WNW,296,4.0,17.0,66,0.00,,,0.00,meteohub,2013-01-06 23:17:00,
2013-01-06 13:22:00,78.4,66.2,29.99,WNW,298,4.0,17.0,66,0.00,,,0.00,meteohub,2013-01-06 23:22:00,
2013-01-06 13:27:00,79.0,66.2,29.99,NW,315,7.0,13.0,65,0.00,,,0.00,meteohub,2013-01-06 23:27:00,
2013-01-06 13:32:00,78.8,65.7,29.99,West,278,7.0,11.0,64,0.00,,,0.00,meteohub,2013-01-06 23:32:00,
2013-01-06 13:37:00,78.6,66.4,29.99,WNW,284,6.0,11.0,66,0.00,,,0.00,meteohub,2013-01-06 23:37:00,
2013-01-06 13:42:00,78.6,64.9,29.99,WNW,298,4.0,11.0,63,0.00,,,0.00,meteohub,2013-01-06 23:42:00,
2013-01-06 13:47:00,78.3,66.0,29.99,SSW,194,1.0,11.0,66,0.00,,,0.00,meteohub,2013-01-06 23:47:00,
2013-01-06 13:52:00,78.3,66.0,29.98,NW,304,7.0,8.0,66,0.00,,,0.00,meteohub,2013-01-06 23:52:00,
2013-01-06 13:57:00,78.3,64.6,29.98,NW,311,2.0,9.0,63,0.00,,,0.00,meteohub,2013-01-06 23:57:00,
2013-01-06 14:02:00,78.8,65.7,29.98,WNW,288,5.0,9.0,64,0.00,,,0.00,meteohub,2013-01-07 00:02:00,
2013-01-06 14:07:00,79.0,65.3,29.98,WSW,248,4.0,9.0,63,0.00,,,0.00,meteohub,2013-01-07 00:07:00,
2013-01-06 14:12:00,79.0,62.4,29.98,WNW,295,1.0,9.0,57,0.00,,,0.00,meteohub,2013-01-07 00:12:00,
2013-01-06 14:17:00,79.2,62.6,29.98,West,276,4.0,9.0,57,0.00,,,0.00,meteohub,2013-01-07 00:17:00,
2013-01-06 14:22:00,79.0,63.0,29.98,WSW,246,2.0,7.0,58,0.00,,,0.00,meteohub,2013-01-07 00:22:00,
2013-01-06 14:27:00,79.2,62.6,29.98,WSW,248,1.0,7.0,57,0.00,,,0.00,meteohub,2013-01-07 00:27:00,
2013-01-06 14:32:00,79.3,62.8,29.98,WSW,238,5.0,7.0,57,0.00,,,0.00,meteohub,2013-01-07 00:32:00,
2013-01-06 14:37:00,79.3,62.8,29.98,West,273,2.0,7.0,57,0.00,,,0.00,meteohub,2013-01-07 00:37:00,
2013-01-06 14:42:00,79.3,63.7,29.98,West,271,3.0,6.0,59,0.00,,,0.00,meteohub,2013-01-07 00:42:00,
2013-01-06 14:47:00,79.5,64.4,29.98,WSW,237,3.0,6.0,60,0.00,,,0.00,meteohub,2013-01-07 00:47:00,
2013-01-06 14:52:00,79.5,63.0,29.98,SW,219,1.0,6.0,57,0.00,,,0.00,meteohub,2013-01-07 00:52:00,
2013-01-06 14:57:00,79.5,63.5,29.98,West,266,3.0,6.0,58,0.00,,,0.00,meteohub,2013-01-07 00:57:00,
2013-01-06 15:02:00,79.5,63.5,29.98,SW,236,4.0,7.0,58,0.00,,,0.00,meteohub,2013-01-07 01:02:00,
2013-01-06 15:07:00,80.1,63.9,29.98,WSW,243,5.0,7.0,58,0.00,,,0.00,meteohub,2013-01-07 01:07:00,
2013-01-06 15:12:00,79.3,63.3,29.98,WSW,249,5.0,8.0,58,0.00,,,0.00,meteohub,2013-01-07 01:12:00,
2013-01-06 15:17:00,79.0,63.9,29.97,SW,222,4.0,8.0,60,0.00,,,0.00,meteohub,2013-01-07 01:17:00,
2013-01-06 15:22:00,79.5,64.4,29.97,West,271,3.0,8.0,60,0.00,,,0.00,meteohub,2013-01-07 01:22:00,
2013-01-06 15:27:00,79.3,63.3,29.97,West,262,4.0,7.0,58,0.00,,,0.00,meteohub,2013-01-07 01:27:00,
2013-01-06 15:32:00,79.3,63.7,29.97,SW,235,4.0,8.0,59,0.00,,,0.00,meteohub,2013-01-07 01:32:00,
2013-01-06 15:37:00,79.5,63.5,29.96,WSW,250,3.0,8.0,58,0.00,,,0.00,meteohub,2013-01-07 01:37:00,
2013-01-06 15:42:00,80.2,64.0,29.96,WNW,286,2.0,8.0,58,0.00,,,0.00,meteohub,2013-01-07 01:42:00,
2013-01-06 15:48:00,79.9,63.9,29.97,WSW,250,1.0,5.0,58,0.00,,,0.00,meteohub,2013-01-07 01:48:00,
2013-01-06 15:53:00,79.9,63.9,29.96,West,278,3.0,6.0,58,0.00,,,0.00,meteohub,2013-01-07 01:53:00,
2013-01-06 15:58:00,79.5,63.5,29.96,West,260,4.0,6.0,58,0.00,,,0.00,meteohub,2013-01-07 01:58:00,
2013-01-06 16:03:00,79.3,62.8,29.96,WNW,287,2.0,6.0,57,0.00,,,0.00,meteohub,2013-01-07 02:03:00,
2013-01-06 16:08:00,79.7,63.7,29.96,WSW,241,0.0,6.0,58,0.00,,,0.00,meteohub,2013-01-07 02:08:00,
2013-01-06 16:13:00,79.9,63.9,29.97,West,271,5.0,6.0,58,0.00,,,0.00,meteohub,2013-01-07 02:13:00,
2013-01-06 16:18:00,79.5,63.0,29.97,WNW,300,3.0,6.0,57,0.00,,,0.00,meteohub,2013-01-07 02:18:00,
2013-01-06 16:23:00,79.3,63.7,29.97,WNW,294,6.0,7.0,59,0.00,,,0.00,meteohub,2013-01-07 02:23:00,
2013-01-06 16:28:00,79.0,64.4,29.97,NW,306,5.0,8.0,61,0.00,,,0.00,meteohub,2013-01-07 02:28:00,
2013-01-06 16:33:00,78.6,64.0,29.97,WNW,300,3.0,9.0,61,0.00,,,0.00,meteohub,2013-01-07 02:33:00,
2013-01-06 16:38:00,79.0,65.3,29.98,West,259,5.0,9.0,63,0.00,,,0.00,meteohub,2013-01-07 02:38:00,
2013-01-06 16:43:00,78.3,66.0,29.98,WNW,302,12.0,12.0,66,0.00,,,0.00,meteohub,2013-01-07 02:43:00,
2013-01-06 16:48:00,77.7,65.5,29.98,NNW,335,6.0,13.0,66,0.00,,,0.00,meteohub,2013-01-07 02:48:00,
2013-01-06 16:53:00,77.5,65.7,29.98,NW,310,11.0,15.0,67,0.00,,,0.00,meteohub,2013-01-07 02:53:00,
2013-01-06 16:59:00,77.2,66.2,29.98,WNW,284,7.0,15.0,69,0.00,,,0.00,meteohub,2013-01-07 02:59:00,
2013-01-06 17:04:00,76.8,65.8,29.98,WNW,297,8.0,15.0,69,0.00,,,0.00,meteohub,2013-01-07 03:04:00,
2013-01-06 17:09:00,76.3,64.9,29.98,NW,319,8.0,13.0,68,0.00,,,0.00,meteohub,2013-01-07 03:09:00,
2013-01-06 17:14:00,75.7,64.8,29.98,WNW,303,4.0,13.0,69,0.00,,,0.00,meteohub,2013-01-07 03:14:00,
2013-01-06 17:19:00,75.6,65.1,29.98,NW,324,8.0,13.0,70,0.00,,,0.00,meteohub,2013-01-07 03:19:00,
2013-01-06 17:24:00,75.4,64.9,29.98,NNW,336,6.0,14.0,70,0.00,,,0.00,meteohub,2013-01-07 03:24:00,
2013-01-06 17:29:00,75.2,64.8,29.98,NW,317,5.0,14.0,70,0.00,,,0.00,meteohub,2013-01-07 03:29:00,
2013-01-06 17:34:00,75.0,64.6,29.98,NW,304,3.0,14.0,70,0.00,,,0.00,meteohub,2013-01-07 03:34:00,
2013-01-06 17:39:00,75.4,64.9,29.99,West,277,0.0,10.0,70,0.00,,,0.00,meteohub,2013-01-07 03:39:00,
2013-01-06 17:44:00,75.7,64.8,29.98,NW,322,0.0,9.0,69,0.00,,,0.00,meteohub,2013-01-07 03:44:00,
2013-01-06 17:49:00,76.1,64.4,29.98,SSW,211,1.0,7.0,67,0.00,,,0.00,meteohub,2013-01-07 03:49:00,
2013-01-06 17:54:00,76.1,64.8,29.98,SSW,197,0.0,3.0,68,0.00,,,0.00,meteohub,2013-01-07 03:54:00,
2013-01-06 17:59:00,75.9,65.5,29.98,South,188,1.0,2.0,70,0.00,,,0.00,meteohub,2013-01-07 03:59:00,
2013-01-06 18:04:00,75.2,64.8,29.98,SE,141,1.0,2.0,70,0.00,,,0.00,meteohub,2013-01-07 04:04:00,
2013-01-06 18:09:00,74.8,64.8,29.98,SE,138,1.0,4.0,71,0.00,,,0.00,meteohub,2013-01-07 04:09:00,
2013-01-06 18:15:00,74.5,64.9,29.98,SW,219,2.0,4.0,72,0.00,,,0.00,meteohub,2013-01-07 04:15:00,
2013-01-06 18:20:00,74.1,64.9,29.99,WNW,293,2.0,4.0,73,0.00,,,0.00,meteohub,2013-01-07 04:20:00,
2013-01-06 18:25:00,73.9,64.4,29.99,NW,314,3.0,3.0,72,0.00,,,0.00,meteohub,2013-01-07 04:25:00,
2013-01-06 18:30:00,73.8,64.2,29.99,NW,304,2.0,6.0,72,0.00,,,0.00,meteohub,2013-01-07 04:30:00,
2013-01-06 18:35:00,73.4,64.2,30.00,NW,304,3.0,7.0,73,0.00,,,0.00,meteohub,2013-01-07 04:35:00,
2013-01-06 18:40:00,73.2,64.0,30.00,NW,323,6.0,9.0,73,0.00,,,0.00,meteohub,2013-01-07 04:40:00,
2013-01-06 18:45:00,73.2,64.4,29.99,NE,49,1.0,10.0,74,0.00,,,0.00,meteohub,2013-01-07 04:45:00,
2013-01-06 18:50:00,73.0,64.2,29.99,NW,321,3.0,10.0,74,0.00,,,0.00,meteohub,2013-01-07 04:50:00,
2013-01-06 18:55:00,73.0,64.2,30.00,NE,49,1.0,10.0,74,0.00,,,0.00,meteohub,2013-01-07 04:55:00,
2013-01-06 19:00:00,72.9,64.0,30.00,NE,47,3.0,10.0,74,0.00,,,0.00,meteohub,2013-01-07 05:00:00,
2013-01-06 19:01:00,72.9,64.0,30.00,NE,51,3.0,8.0,74,0.00,,,0.00,meteohub,2013-01-07 05:01:00,
2013-01-06 19:03:00,72.9,64.0,30.00,NE,40,3.0,8.0,74,0.00,,,0.00,meteohub,2013-01-07 05:03:00,
2013-01-06 19:04:00,72.9,64.0,30.00,NE,37,3.0,8.0,74,0.00,,,0.00,meteohub,2013-01-07 05:04:00,
2013-01-06 19:09:00,72.7,63.9,30.00,NNE,19,3.0,8.0,74,0.00,,,0.00,meteohub,2013-01-07 05:09:00,
2013-01-06 19:14:00,72.7,63.9,30.00,NNE,25,4.0,6.0,74,0.00,,,0.00,meteohub,2013-01-07 05:14:00,
2013-01-06 19:19:00,72.5,63.7,30.00,ENE,58,3.0,6.0,74,0.00,,,0.00,meteohub,2013-01-07 05:19:00,
2013-01-06 19:24:00,72.3,63.5,30.00,ENE,68,3.0,6.0,74,0.00,,,0.00,meteohub,2013-01-07 05:24:00,
2013-01-06 19:29:00,72.3,63.5,30.01,ESE,103,0.0,6.0,74,0.00,,,0.00,meteohub,2013-01-07 05:29:00,
2013-01-06 19:34:00,72.3,63.5,30.01,East,99,1.0,6.0,74,0.00,,,0.00,meteohub,2013-01-07 05:34:00,
2013-01-06 19:39:00,72.3,63.5,30.01,ENE,58,2.0,6.0,74,0.00,,,0.00,meteohub,2013-01-07 05:39:00,
2013-01-06 19:44:00,72.3,63.1,30.01,NE,44,2.0,6.0,73,0.00,,,0.00,meteohub,2013-01-07 05:44:00,
2013-01-06 19:49:00,72.3,63.5,30.01,NNE,12,0.0,5.0,74,0.00,,,0.00,meteohub,2013-01-07 05:49:00,
2013-01-06 19:54:00,72.3,63.5,30.01,North,8,4.0,4.0,74,0.00,,,0.00,meteohub,2013-01-07 05:54:00,
2013-01-06 19:59:00,72.3,63.5,30.01,NE,47,3.0,5.0,74,0.00,,,0.00,meteohub,2013-01-07 05:59:00,
2013-01-06 20:05:00,72.1,63.3,30.01,ENE,68,2.0,6.0,74,0.00,,,0.00,meteohub,2013-01-07 06:05:00,
2013-01-06 20:10:00,72.0,63.1,30.02,ENE,62,1.0,6.0,74,0.00,,,0.00,meteohub,2013-01-07 06:10:00,
2013-01-06 20:15:00,72.0,63.1,30.02,ENE,65,1.0,6.0,74,0.00,,,0.00,meteohub,2013-01-07 06:15:00,
2013-01-06 20:20:00,72.0,63.1,30.02,ENE,65,1.0,6.0,74,0.00,,,0.00,meteohub,2013-01-07 06:20:00,
2013-01-06 20:25:00,72.0,63.1,30.02,NE,50,0.0,6.0,74,0.00,,,0.00,meteohub,2013-01-07 06:25:00,
2013-01-06 20:30:00,72.0,63.1,30.03,ENE,69,2.0,6.0,74,0.00,,,0.00,meteohub,2013-01-07 06:30:00,
2013-01-06 20:35:00,71.8,63.0,30.03,NNE,15,1.0,4.0,74,0.00,,,0.00,meteohub,2013-01-07 06:35:00,
2013-01-06 20:40:00,71.6,63.0,30.03,NE,44,2.0,5.0,74,0.00,,,0.00,meteohub,2013-01-07 06:40:00,
2013-01-06 20:45:00,71.4,63.1,30.04,NE,47,2.0,5.0,75,0.00,,,0.00,meteohub,2013-01-07 06:45:00,
2013-01-06 20:50:00,71.4,62.8,30.04,NE,50,3.0,5.0,74,0.00,,,0.00,meteohub,2013-01-07 06:50:00,
2013-01-06 20:55:00,71.4,62.8,30.03,NE,47,0.0,5.0,74,0.00,,,0.00,meteohub,2013-01-07 06:55:00,
2013-01-06 21:00:00,71.4,62.8,30.04,East,101,1.0,5.0,74,0.00,,,0.00,meteohub,2013-01-07 07:00:00,
2013-01-06 21:05:00,71.2,62.6,30.04,ENE,62,1.0,4.0,74,0.00,,,0.00,meteohub,2013-01-07 07:05:00,
2013-01-06 21:10:00,71.2,62.6,30.04,East,80,0.0,4.0,74,0.00,,,0.00,meteohub,2013-01-07 07:10:00,
2013-01-06 21:16:00,71.2,62.6,30.04,East,81,3.0,5.0,74,0.00,,,0.00,meteohub,2013-01-07 07:16:00,
2013-01-06 21:21:00,71.2,62.1,30.04,NE,51,1.0,5.0,73,0.00,,,0.00,meteohub,2013-01-07 07:21:00,
2013-01-06 21:26:00,71.4,62.2,30.04,East,90,2.0,5.0,73,0.00,,,0.00,meteohub,2013-01-07 07:26:00,
2013-01-06 21:31:00,71.4,62.2,30.04,ENE,77,1.0,5.0,73,0.00,,,0.00,meteohub,2013-01-07 07:31:00,
2013-01-06 21:36:00,71.6,62.4,30.05,NE,43,0.0,5.0,73,0.00,,,0.00,meteohub,2013-01-07 07:36:00,
2013-01-06 21:41:00,71.6,62.4,30.04,NNE,22,0.0,3.0,73,0.00,,,0.00,meteohub,2013-01-07 07:41:00,
2013-01-06 21:46:00,71.6,62.4,30.04,NE,46,1.0,3.0,73,0.00,,,0.00,meteohub,2013-01-07 07:46:00,
2013-01-06 21:51:00,71.4,62.2,30.04,NE,40,0.0,3.0,73,0.00,,,0.00,meteohub,2013-01-07 07:51:00,
2013-01-06 21:56:00,71.6,62.4,30.04,ENE,77,1.0,4.0,73,0.00,,,0.00,meteohub,2013-01-07 07:56:00,
2013-01-06 22:01:00,71.6,63.0,30.05,NE,44,0.0,4.0,74,0.00,,,0.00,meteohub,2013-01-07 08:01:00,
2013-01-06 22:07:00,71.8,63.0,30.05,NE,50,1.0,4.0,74,0.00,,,0.00,meteohub,2013-01-07 08:07:00,
2013-01-06 22:12:00,71.8,63.0,30.05,NNE,24,0.0,3.0,74,0.00,,,0.00,meteohub,2013-01-07 08:12:00,
2013-01-06 22:17:00,71.8,63.0,30.05,NE,51,1.0,3.0,74,0.00,,,0.00,meteohub,2013-01-07 08:17:00,
2013-01-06 22:22:00,71.6,63.0,30.05,ENE,67,2.0,3.0,74,0.00,,,0.00,meteohub,2013-01-07 08:22:00,
2013-01-06 22:27:00,71.6,63.3,30.05,North,352,0.0,3.0,75,0.00,,,0.00,meteohub,2013-01-07 08:27:00,
2013-01-06 22:32:00,71.8,63.0,30.05,NE,52,0.0,3.0,74,0.00,,,0.00,meteohub,2013-01-07 08:32:00,
2013-01-06 22:37:00,72.0,63.1,30.05,ENE,61,0.0,3.0,74,0.00,,,0.00,meteohub,2013-01-07 08:37:00,
2013-01-06 22:42:00,72.1,63.3,30.05,ENE,57,1.0,3.0,74,0.00,,,0.00,meteohub,2013-01-07 08:42:00,
2013-01-06 22:47:00,72.1,63.3,30.06,NW,307,1.0,3.0,74,0.00,,,0.00,meteohub,2013-01-07 08:47:00,
2013-01-06 22:52:00,72.1,63.3,30.05,NW,309,4.0,4.0,74,0.00,,,0.00,meteohub,2013-01-07 08:52:00,
2013-01-06 22:57:00,72.1,63.9,30.04,WNW,300,3.0,4.0,75,0.00,,,0.00,meteohub,2013-01-07 08:57:00,
2013-01-06 23:02:00,72.0,63.7,30.05,NE,44,1.0,8.0,75,0.00,,,0.00,meteohub,2013-01-07 09:02:00,
2013-01-06 23:07:00,72.0,63.7,30.05,NE,46,1.0,8.0,75,0.00,,,0.00,meteohub,2013-01-07 09:07:00,
2013-01-06 23:12:00,71.8,63.9,30.05,ENE,67,0.0,8.0,76,0.00,,,0.00,meteohub,2013-01-07 09:12:00,
2013-01-06 23:17:00,71.8,63.9,30.04,NNW,328,1.0,3.0,76,0.00,,,0.00,meteohub,2013-01-07 09:17:00,
2013-01-06 23:22:00,71.6,63.7,30.04,NW,318,0.0,3.0,76,0.00,,,0.00,meteohub,2013-01-07 09:22:00,
2013-01-06 23:27:00,71.4,63.9,30.04,ENE,61,1.0,3.0,77,0.00,,,0.00,meteohub,2013-01-07 09:27:00,
2013-01-06 23:33:00,71.2,63.7,30.04,ENE,68,1.0,4.0,77,0.00,,,0.00,meteohub,2013-01-07 09:33:00,
2013-01-06 23:38:00,71.2,63.7,30.04,NE,50,0.0,4.0,77,0.00,,,0.00,meteohub,2013-01-07 09:38:00,
2013-01-06 23:43:00,71.2,63.7,30.04,East,84,1.0,3.0,77,0.00,,,0.00,meteohub,2013-01-07 09:43:00,
2013-01-06 23:48:00,71.2,63.7,30.04,NE,51,1.0,8.0,77,0.00,,,0.00,meteohub,2013-01-07 09:48:00,
2013-01-06 23:53:00,71.1,63.5,30.03,NNE,23,1.0,8.0,77,0.00,,,0.00,meteohub,2013-01-07 09:53:00,
2013-01-06 23:58:00,71.1,63.5,30.03,North,11,0.0,8.0,77,0.00,,,0.00,meteohub,2013-01-07 09:58:00,